Time;durP1;ratioP1;P1;durP2;ratioP2;P2;SDS_P1;SDS_P2;PMS_P1;PMS_P2;Temp;Humidity;BMP_temperature;BMP_pressure;BME280_temperature;BME280_humidity;BME280_pressure;Samples;Min_cycle;Max_cycle;Signal;HPM_P1;HPM_P2
2022/03/14 00:02:25;;;;;;;2.90;2.70;;;;;;;;;;5052129;28;20209;-81
2022/03/14 00:04:52;;;;;;;2.85;2.55;;;;;;;;;;5039250;28;20198;-81
2022/03/14 00:07:20;;;;;;;2.92;2.65;;;;;;;;;;5032699;28;20786;-81
2022/03/14 00:09:47;;;;;;;3.05;2.75;;;;;;;;;;5032448;28;20218;-83
2022/03/14 00:12:23;;;;;;;3.30;3.00;;;;;;;;;;5034740;28;20202;-82
2022/03/14 00:14:56;;;;;;;3.08;2.88;;;;;;;;;;5036506;28;20248;-82
2022/03/14 00:17:25;;;;;;;4.40;3.28;;;;;;;;;;5036662;28;20561;-82
2022/03/14 00:19:52;;;;;;;2.80;2.60;;;;;;;;;;5036093;28;20788;-83
2022/03/14 00:22:20;;;;;;;3.63;3.00;;;;;;;;;;5035755;28;20213;-83
2022/03/14 00:24:48;;;;;;;3.45;3.15;;;;;;;;;;5035940;28;20292;-83
2022/03/14 00:27:15;;;;;;;3.15;2.85;;;;;;;;;;5036223;28;20222;-82
2022/03/14 00:29:42;;;;;;;2.92;2.72;;;;;;;;;;5036054;28;20293;-82
2022/03/14 00:32:11;;;;;;;3.58;3.28;;;;;;;;;;5035511;28;20670;-82
2022/03/14 00:34:39;;;;;;;3.53;3.22;;;;;;;;;;5046984;28;20209;-82
2022/03/14 00:37:06;;;;;;;4.40;3.50;;;;;;;;;;5055481;28;20198;-82
2022/03/14 00:39:34;;;;;;;4.15;3.40;;;;;;;;;;5055812;28;20553;-83
2022/03/14 00:42:02;;;;;;;3.28;3.08;;;;;;;;;;5054713;28;20201;-82
2022/03/14 00:44:31;;;;;;;3.15;2.75;;;;;;;;;;5055541;28;20205;-82
2022/03/14 00:46:58;;;;;;;3.05;2.85;;;;;;;;;;5055508;28;20202;-82
2022/03/14 00:49:27;;;;;;;3.28;2.95;;;;;;;;;;5055307;28;20209;-85
2022/03/14 00:51:54;;;;;;;3.35;3.05;;;;;;;;;;5054477;28;20209;-83
2022/03/14 00:54:22;;;;;;;3.92;2.83;;;;;;;;;;5055388;28;20734;-83
2022/03/14 00:56:49;;;;;;;2.55;2.35;;;;;;;;;;5055260;28;20206;-83
2022/03/14 00:59:17;;;;;;;2.58;2.38;;;;;;;;;;5055480;28;20209;-82
2022/03/14 01:01:45;;;;;;;2.65;2.45;;;;;;;;;;5054872;28;20253;-83
2022/03/14 01:04:12;;;;;;;3.70;3.33;;;;;;;;;;5047563;28;20203;-82
2022/03/14 01:06:41;;;;;;;2.00;1.90;;;;;;;;;;5035054;28;20209;-82
2022/03/14 01:09:11;;;;;;;2.67;2.25;;;;;;;;;;5035185;28;20226;-82
2022/03/14 01:11:39;;;;;;;2.95;2.75;;;;;;;;;;5034996;28;20309;-82
2022/03/14 01:14:06;;;;;;;3.47;2.80;;;;;;;;;;5035145;28;20202;-82
2022/03/14 01:16:34;;;;;;;2.65;2.45;;;;;;;;;;5034885;28;20206;-82
2022/03/14 01:19:01;;;;;;;3.53;3.22;;;;;;;;;;5035172;28;20202;-82
2022/03/14 01:21:30;;;;;;;3.80;3.00;;;;;;;;;;5034750;28;20715;-85
2022/03/14 01:23:59;;;;;;;3.53;3.22;;;;;;;;;;5034459;28;20226;-84
2022/03/14 01:26:26;;;;;;;2.97;2.78;;;;;;;;;;5034842;28;20198;-84
2022/03/14 01:28:54;;;;;;;4.25;3.17;;;;;;;;;;5034429;28;20219;-82
2022/03/14 01:31:21;;;;;;;3.10;2.80;;;;;;;;;;5034916;28;20229;-84
2022/03/14 01:33:49;;;;;;;3.33;3.03;;;;;;;;;;5039141;28;20217;-84
2022/03/14 01:36:17;;;;;;;3.60;3.25;;;;;;;;;;5054847;28;20203;-82
2022/03/14 01:38:44;;;;;;;4.60;3.33;;;;;;;;;;5054594;28;20244;-83
2022/03/14 01:41:16;;;;;;;3.17;2.88;;;;;;;;;;5054686;28;20225;-83
2022/03/14 01:43:47;;;;;;;3.25;2.95;;;;;;;;;;5054315;28;20239;-84
2022/03/14 01:46:15;;;;;;;3.40;3.10;;;;;;;;;;5054930;28;20197;-82
2022/03/14 01:48:43;;;;;;;3.22;2.92;;;;;;;;;;5054496;28;20701;-84
2022/03/14 01:51:10;;;;;;;3.35;3.08;;;;;;;;;;5054314;28;20233;-83
2022/03/14 01:53:38;;;;;;;4.50;3.42;;;;;;;;;;5054234;28;20673;-83
2022/03/14 01:56:06;;;;;;;3.22;2.92;;;;;;;;;;5054138;28;20229;-84
2022/03/14 01:58:35;;;;;;;3.15;2.88;;;;;;;;;;5054194;28;20197;-84
2022/03/14 02:01:02;;;;;;;3.22;2.92;;;;;;;;;;5053940;28;20709;-82
2022/03/14 02:03:30;;;;;;;3.00;2.80;;;;;;;;;;5053263;28;20600;-83
2022/03/14 02:05:58;;;;;;;3.10;2.83;;;;;;;;;;5053763;28;20201;-82
2022/03/14 02:08:26;;;;;;;3.97;3.58;;;;;;;;;;5054063;28;20221;-82
2022/03/14 02:10:54;;;;;;;4.07;3.38;;;;;;;;;;5054023;28;20230;-82
2022/03/14 02:13:21;;;;;;;2.75;2.53;;;;;;;;;;5053928;28;20208;-83
2022/03/14 02:15:58;;;;;;;2.92;2.72;;;;;;;;;;5053331;28;20677;-83
2022/03/14 02:18:25;;;;;;;3.40;3.10;;;;;;;;;;5053709;28;20252;-82
2022/03/14 02:20:56;;;;;;;2.83;2.63;;;;;;;;;;5053474;28;20222;-83
2022/03/14 02:23:23;;;;;;;3.40;3.10;;;;;;;;;;5053315;28;20297;-82
2022/03/14 02:25:52;;;;;;;3.00;2.80;;;;;;;;;;5053427;28;20232;-82
2022/03/14 02:28:22;;;;;;;3.85;3.53;;;;;;;;;;5053398;28;20272;-82
2022/03/14 02:30:50;;;;;;;3.67;3.13;;;;;;;;;;5053467;28;20226;-82
2022/03/14 02:33:18;;;;;;;4.00;3.67;;;;;;;;;;5052612;28;20205;-83
2022/03/14 02:35:46;;;;;;;3.72;3.38;;;;;;;;;;5052841;28;20210;-82
2022/03/14 02:38:17;;;;;;;4.38;3.85;;;;;;;;;;5052634;28;20323;-82
2022/03/14 02:40:46;;;;;;;3.08;2.78;;;;;;;;;;5053375;28;20352;-82
2022/03/14 02:43:15;;;;;;;4.43;3.00;;;;;;;;;;5052945;28;20201;-83
2022/03/14 02:45:43;;;;;;;3.58;3.28;;;;;;;;;;5053168;28;20293;-84
2022/03/14 02:48:12;;;;;;;3.63;3.33;;;;;;;;;;5052639;28;20206;-83
2022/03/14 02:50:42;;;;;;;3.10;2.90;;;;;;;;;;5052743;28;20260;-82
2022/03/14 02:53:11;;;;;;;2.63;2.42;;;;;;;;;;5053244;28;20213;-83
2022/03/14 02:55:41;;;;;;;2.80;2.60;;;;;;;;;;5052980;28;20201;-83
2022/03/14 02:58:09;;;;;;;2.90;2.60;;;;;;;;;;5052904;28;20210;-82
2022/03/14 03:00:36;;;;;;;3.22;2.90;;;;;;;;;;5053081;28;20285;-82
2022/03/14 03:03:05;;;;;;;3.30;2.85;;;;;;;;;;5052524;28;20194;-82
2022/03/14 03:05:34;;;;;;;3.22;3.03;;;;;;;;;;5033935;28;20202;-83
2022/03/14 03:08:03;;;;;;;2.72;2.53;;;;;;;;;;5033305;28;20199;-83
2022/03/14 03:10:32;;;;;;;3.60;3.30;;;;;;;;;;5032641;28;20297;-83
2022/03/14 03:13:01;;;;;;;2.55;2.35;;;;;;;;;;5032880;28;20576;-82
2022/03/14 03:15:29;;;;;;;3.00;2.40;;;;;;;;;;5033078;28;20234;-83
2022/03/14 03:17:56;;;;;;;3.22;2.92;;;;;;;;;;5032642;28;20225;-82
2022/03/14 03:20:25;;;;;;;3.55;3.22;;;;;;;;;;5032689;28;20324;-83
2022/03/14 03:22:52;;;;;;;3.25;3.03;;;;;;;;;;5032877;28;20201;-82
2022/03/14 03:25:20;;;;;;;3.42;3.15;;;;;;;;;;5032481;28;20209;-84
2022/03/14 03:27:47;;;;;;;3.60;3.30;;;;;;;;;;5032338;28;20241;-84
2022/03/14 03:30:16;;;;;;;5.25;4.20;;;;;;;;;;5031857;28;20226;-82
2022/03/14 03:32:44;;;;;;;4.13;3.67;;;;;;;;;;5032222;28;20202;-82
2022/03/14 03:35:11;;;;;;;4.38;3.97;;;;;;;;;;5048014;28;20209;-83
2022/03/14 03:37:39;;;;;;;4.30;3.97;;;;;;;;;;5052846;28;20213;-82
2022/03/14 03:40:08;;;;;;;4.10;3.78;;;;;;;;;;5055572;28;20226;-83
2022/03/14 03:42:35;;;;;;;4.75;4.05;;;;;;;;;;5066185;28;20193;-84
2022/03/14 03:45:03;;;;;;;3.42;3.15;;;;;;;;;;5065697;28;20206;-82
2022/03/14 03:47:31;;;;;;;3.70;3.40;;;;;;;;;;5070698;28;20731;-82
2022/03/14 03:49:59;;;;;;;3.85;3.53;;;;;;;;;;5066830;28;20232;-82
2022/03/14 03:52:26;;;;;;;3.70;3.40;;;;;;;;;;5059846;28;20259;-84
2022/03/14 03:54:54;;;;;;;3.65;3.35;;;;;;;;;;5057833;28;20273;-83
2022/03/14 03:57:21;;;;;;;3.42;3.13;;;;;;;;;;5057395;28;20201;-84
2022/03/14 03:59:48;;;;;;;4.35;3.75;;;;;;;;;;5057140;28;20233;-84
2022/03/14 04:02:19;;;;;;;6.68;4.85;;;;;;;;;;5056105;28;20198;-83
2022/03/14 04:04:48;;;;;;;4.18;3.78;;;;;;;;;;5044470;28;20207;-85
2022/03/14 04:07:18;;;;;;;3.80;3.45;;;;;;;;;;5047351;28;20202;-82
2022/03/14 04:09:46;;;;;;;3.50;3.20;;;;;;;;;;5050740;28;20233;-82
2022/03/14 04:12:14;;;;;;;3.50;3.20;;;;;;;;;;5050467;28;20207;-82
2022/03/14 04:14:41;;;;;;;4.05;3.72;;;;;;;;;;5047879;28;20645;-83
2022/03/14 04:17:09;;;;;;;4.50;4.10;;;;;;;;;;5037148;28;20202;-84
2022/03/14 04:19:39;;;;;;;2.90;2.67;;;;;;;;;;5036849;28;20200;-86
2022/03/14 04:22:07;;;;;;;3.70;3.40;;;;;;;;;;5036120;28;20294;-83
2022/03/14 04:24:37;;;;;;;3.55;3.20;;;;;;;;;;5036455;28;20285;-84
2022/03/14 04:27:05;;;;;;;2.70;2.50;;;;;;;;;;5036389;28;20207;-86
2022/03/14 04:29:32;;;;;;;4.30;3.90;;;;;;;;;;5035897;28;20219;-85
2022/03/14 04:32:01;;;;;;;4.10;3.40;;;;;;;;;;5036346;28;20213;-83
2022/03/14 04:34:28;;;;;;;4.22;3.88;;;;;;;;;;5045631;28;20212;-84
2022/03/14 04:36:56;;;;;;;3.85;3.38;;;;;;;;;;5056238;28;20206;-84
2022/03/14 04:39:25;;;;;;;3.63;3.15;;;;;;;;;;5055494;28;20202;-85
2022/03/14 04:41:53;;;;;;;3.60;3.30;;;;;;;;;;5055138;28;20240;-82
2022/03/14 04:44:21;;;;;;;3.30;3.00;;;;;;;;;;5055729;28;20216;-84
2022/03/14 04:46:48;;;;;;;3.60;3.30;;;;;;;;;;5055708;28;20205;-83
2022/03/14 04:49:16;;;;;;;3.38;3.08;;;;;;;;;;5055636;28;20558;-82
2022/03/14 04:51:43;;;;;;;3.60;3.30;;;;;;;;;;5054518;28;20653;-83
2022/03/14 04:54:11;;;;;;;3.25;2.83;;;;;;;;;;5055213;28;20251;-82
2022/03/14 04:56:40;;;;;;;3.45;3.15;;;;;;;;;;5055870;28;20201;-82
2022/03/14 04:59:07;;;;;;;3.75;2.80;;;;;;;;;;5055192;28;20194;-83
2022/03/14 05:01:34;;;;;;;2.50;2.30;;;;;;;;;;5055545;28;20222;-84
2022/03/14 05:04:02;;;;;;;3.40;3.08;;;;;;;;;;5055523;28;20300;-83
2022/03/14 05:06:30;;;;;;;3.40;3.10;;;;;;;;;;5055260;28;20212;-84
2022/03/14 05:08:57;;;;;;;3.75;3.45;;;;;;;;;;5054956;28;20588;-83
2022/03/14 05:11:24;;;;;;;3.33;3.13;;;;;;;;;;5055148;28;20237;-84
2022/03/14 05:13:53;;;;;;;4.20;3.88;;;;;;;;;;5055288;28;20208;-82
2022/03/14 05:16:21;;;;;;;5.00;4.50;;;;;;;;;;5054638;28;20202;-83
2022/03/14 05:18:48;;;;;;;4.70;4.30;;;;;;;;;;5055343;28;20654;-83
2022/03/14 05:21:16;;;;;;;4.57;4.13;;;;;;;;;;5054944;28;20221;-86
2022/03/14 05:23:43;;;;;;;4.22;3.83;;;;;;;;;;5055194;28;20213;-83
2022/03/14 05:26:11;;;;;;;3.72;3.40;;;;;;;;;;5054672;28;20198;-83
2022/03/14 05:28:38;;;;;;;3.40;3.08;;;;;;;;;;5054035;28;20665;-85
2022/03/14 05:31:07;;;;;;;4.20;3.80;;;;;;;;;;5054032;28;20228;-83
2022/03/14 05:33:34;;;;;;;3.65;3.35;;;;;;;;;;5051965;28;20198;-83
2022/03/14 05:36:02;;;;;;;4.25;3.67;;;;;;;;;;5034986;28;20213;-83
2022/03/14 05:38:29;;;;;;;4.43;4.00;;;;;;;;;;5035102;28;20256;-82
2022/03/14 05:40:57;;;;;;;4.28;3.88;;;;;;;;;;5034188;28;20222;-83
2022/03/14 05:43:25;;;;;;;5.53;4.72;;;;;;;;;;5034734;28;20579;-84
2022/03/14 05:45:52;;;;;;;4.13;3.72;;;;;;;;;;5034133;28;20210;-85
2022/03/14 05:48:21;;;;;;;4.38;3.97;;;;;;;;;;5036040;28;20209;-80
2022/03/14 05:50:49;;;;;;;5.65;5.00;;;;;;;;;;5041085;28;20222;-79
2022/03/14 05:53:16;;;;;;;4.72;4.15;;;;;;;;;;5036227;28;20226;-79
2022/03/14 05:55:43;;;;;;;4.82;4.32;;;;;;;;;;5035791;28;20202;-80
2022/03/14 05:58:11;;;;;;;5.25;4.63;;;;;;;;;;5035471;28;20203;-79
2022/03/14 06:00:39;;;;;;;3.92;3.50;;;;;;;;;;5035756;28;20223;-79
2022/03/14 06:03:06;;;;;;;4.63;4.20;;;;;;;;;;5035397;28;20206;-80
2022/03/14 06:05:35;;;;;;;4.07;3.67;;;;;;;;;;5054201;28;20259;-79
2022/03/14 06:08:02;;;;;;;4.72;4.15;;;;;;;;;;5061385;28;20201;-79
2022/03/14 06:10:29;;;;;;;4.07;3.78;;;;;;;;;;5055443;28;20225;-80
2022/03/14 06:12:57;;;;;;;4.43;3.65;;;;;;;;;;5059728;28;20216;-80
2022/03/14 06:15:24;;;;;;;3.83;3.42;;;;;;;;;;5057166;28;20637;-80
2022/03/14 06:17:52;;;;;;;3.38;3.08;;;;;;;;;;5055204;28;20209;-79
2022/03/14 06:20:19;;;;;;;4.32;3.92;;;;;;;;;;5056209;28;20488;-80
2022/03/14 06:22:48;;;;;;;3.88;3.58;;;;;;;;;;5056219;28;20201;-80
2022/03/14 06:25:18;;;;;;;3.10;2.80;;;;;;;;;;5056409;28;20198;-81
2022/03/14 06:27:45;;;;;;;5.72;4.20;;;;;;;;;;5055778;28;20205;-79
2022/03/14 06:30:14;;;;;;;5.38;4.88;;;;;;;;;;5056964;28;20601;-81
2022/03/14 06:32:46;;;;;;;6.25;5.65;;;;;;;;;;5054926;28;20690;-80
2022/03/14 06:35:16;;;;;;;4.97;4.50;;;;;;;;;;5051429;28;20206;-80
2022/03/14 06:37:44;;;;;;;5.53;4.97;;;;;;;;;;5055112;28;20248;-81
2022/03/14 06:40:14;;;;;;;5.38;4.88;;;;;;;;;;5054440;28;20229;-80
2022/03/14 06:42:48;;;;;;;4.57;4.18;;;;;;;;;;5054486;28;20205;-80
2022/03/14 06:45:23;;;;;;;5.00;4.50;;;;;;;;;;5055854;28;20201;-81
2022/03/14 06:47:51;;;;;;;6.00;5.40;;;;;;;;;;5054860;28;20205;-79
2022/03/14 06:50:20;;;;;;;5.43;4.93;;;;;;;;;;5054360;28;20239;-80
2022/03/14 06:52:48;;;;;;;4.78;4.10;;;;;;;;;;5053461;28;20230;-80
2022/03/14 06:55:17;;;;;;;6.28;5.07;;;;;;;;;;5055699;28;20292;-80
2022/03/14 06:57:44;;;;;;;6.10;5.20;;;;;;;;;;5055591;28;20666;-81
2022/03/14 07:00:13;;;;;;;5.32;3.70;;;;;;;;;;5054955;28;20221;-80
2022/03/14 07:02:41;;;;;;;5.00;4.60;;;;;;;;;;5057995;28;20650;-80
2022/03/14 07:05:13;;;;;;;5.00;4.60;;;;;;;;;;5055145;28;20205;-81
2022/03/14 07:07:41;;;;;;;6.85;4.93;;;;;;;;;;5055541;28;20218;-81
2022/03/14 07:10:10;;;;;;;7.95;7.07;;;;;;;;;;5054311;28;20225;-81
2022/03/14 07:12:45;;;;;;;6.68;5.72;;;;;;;;;;5053650;28;20229;-80
2022/03/14 07:15:14;;;;;;;5.63;5.03;;;;;;;;;;5053972;28;20225;-81
2022/03/14 07:17:42;;;;;;;5.28;4.47;;;;;;;;;;5053879;28;20216;-80
2022/03/14 07:20:11;;;;;;;4.65;4.03;;;;;;;;;;5053655;28;20230;-80
2022/03/14 07:22:50;;;;;;;4.90;4.45;;;;;;;;;;5053362;28;20201;-80
2022/03/14 07:25:21;;;;;;;5.72;5.20;;;;;;;;;;5053558;28;20206;-80
2022/03/14 07:27:49;;;;;;;6.05;5.45;;;;;;;;;;5052906;28;20209;-81
2022/03/14 07:30:17;;;;;;;6.53;5.40;;;;;;;;;;5054250;28;20312;-79
2022/03/14 07:32:45;;;;;;;5.57;5.03;;;;;;;;;;5053757;28;20477;-80
2022/03/14 07:35:12;;;;;;;7.90;6.22;;;;;;;;;;5049974;28;20201;-79
2022/03/14 07:37:40;;;;;;;7.50;5.85;;;;;;;;;;5053463;28;20210;-80
2022/03/14 07:40:09;;;;;;;8.70;7.18;;;;;;;;;;5053154;28;20320;-80
2022/03/14 07:42:45;;;;;;;6.60;6.00;;;;;;;;;;5053985;28;20241;-80
2022/03/14 07:45:16;;;;;;;6.22;5.20;;;;;;;;;;5054637;28;20208;-81
2022/03/14 07:47:44;;;;;;;5.68;5.18;;;;;;;;;;5047098;28;20216;-80
2022/03/14 07:50:15;;;;;;;5.35;4.85;;;;;;;;;;5046983;28;20643;-81
2022/03/14 07:52:43;;;;;;;5.95;5.35;;;;;;;;;;5053475;28;20252;-81
2022/03/14 07:55:11;;;;;;;5.43;4.93;;;;;;;;;;5054454;28;20206;-84
2022/03/14 07:57:39;;;;;;;6.38;5.78;;;;;;;;;;5053421;28;20597;-82
2022/03/14 08:00:10;;;;;;;5.93;5.40;;;;;;;;;;5053289;28;20226;-81
2022/03/14 08:02:39;;;;;;;7.93;7.22;;;;;;;;;;5056022;28;20225;-81
2022/03/14 08:05:08;;;;;;;7.28;6.47;;;;;;;;;;5052775;28;20213;-81
2022/03/14 08:07:36;;;;;;;6.03;5.43;;;;;;;;;;5053128;28;20221;-82
2022/03/14 08:10:09;;;;;;;6.38;5.78;;;;;;;;;;5053052;28;20283;-80
2022/03/14 08:12:49;;;;;;;5.68;5.13;;;;;;;;;;5053471;28;20225;-81
2022/03/14 08:15:24;;;;;;;4.65;4.25;;;;;;;;;;5054430;28;20217;-80
2022/03/14 08:17:55;;;;;;;5.80;5.20;;;;;;;;;;5075938;22;20300;-80
2022/03/14 08:20:23;;;;;;;6.00;4.38;;;;;;;;;;5060810;28;20202;-80
2022/03/14 08:22:51;;;;;;;4.90;4.50;;;;;;;;;;5060377;28;20678;-80
2022/03/14 08:25:18;;;;;;;6.90;6.30;;;;;;;;;;5061967;28;20292;-83
2022/03/14 08:27:46;;;;;;;5.63;5.13;;;;;;;;;;5060416;28;20229;-82
2022/03/14 08:30:14;;;;;;;6.85;5.65;;;;;;;;;;5061145;28;20209;-82
2022/03/14 08:32:41;;;;;;;6.72;4.47;;;;;;;;;;5061688;28;20225;-81
2022/03/14 08:35:12;;;;;;;5.88;5.38;;;;;;;;;;5064090;28;20292;-80
2022/03/14 08:37:42;;;;;;;7.20;6.53;;;;;;;;;;5062952;28;20225;-80
2022/03/14 08:40:11;;;;;;;7.88;6.38;;;;;;;;;;5063741;28;20251;-79
2022/03/14 08:42:39;;;;;;;8.48;7.57;;;;;;;;;;5063400;28;20198;-81
2022/03/14 08:45:09;;;;;;;9.00;7.63;;;;;;;;;;5062560;28;20210;-82
2022/03/14 08:47:37;;;;;;;10.02;7.05;;;;;;;;;;5062393;28;20225;-82
2022/03/14 08:50:07;;;;;;;8.25;7.18;;;;;;;;;;5054283;28;20209;-82
2022/03/14 08:52:37;;;;;;;6.22;5.63;;;;;;;;;;5054265;28;20225;-81
2022/03/14 08:55:05;;;;;;;6.03;5.43;;;;;;;;;;5060074;28;20206;-82
2022/03/14 08:57:33;;;;;;;6.60;6.00;;;;;;;;;;5059993;28;20225;-81
2022/03/14 09:00:00;;;;;;;6.13;5.47;;;;;;;;;;5066419;28;20267;-81
2022/03/14 09:02:27;;;;;;;6.65;6.05;;;;;;;;;;5075002;28;20213;-81
2022/03/14 09:04:55;;;;;;;7.35;6.57;;;;;;;;;;5077049;28;20210;-82
2022/03/14 09:07:26;;;;;;;6.30;5.70;;;;;;;;;;5075665;28;20235;-81
2022/03/14 09:09:55;;;;;;;7.63;6.85;;;;;;;;;;5075263;28;20210;-81
2022/03/14 09:12:22;;;;;;;7.25;6.57;;;;;;;;;;5076752;28;20229;-81
2022/03/14 09:14:51;;;;;;;8.73;7.78;;;;;;;;;;5076399;28;20193;-81
2022/03/14 09:17:18;;;;;;;9.45;5.85;;;;;;;;;;5077025;28;20217;-81
2022/03/14 09:19:46;;;;;;;6.60;6.07;;;;;;;;;;5077535;28;20199;-80
2022/03/14 09:22:13;;;;;;;5.72;5.22;;;;;;;;;;5077048;28;20205;-82
2022/03/14 09:24:41;;;;;;;5.82;5.20;;;;;;;;;;5074826;28;20219;-81
2022/03/14 09:27:11;;;;;;;5.57;5.00;;;;;;;;;;5076944;28;20222;-82
2022/03/14 09:29:39;;;;;;;5.75;4.57;;;;;;;;;;5077699;28;20233;-81
2022/03/14 09:32:09;;;;;;;5.30;4.80;;;;;;;;;;5076909;28;20205;-83
2022/03/14 09:34:37;;;;;;;5.40;4.90;;;;;;;;;;5076411;28;20674;-84
2022/03/14 09:37:05;;;;;;;6.05;5.35;;;;;;;;;;5071255;28;20222;-84
2022/03/14 09:39:34;;;;;;;4.60;4.20;;;;;;;;;;5069441;28;20205;-83
2022/03/14 09:42:03;;;;;;;6.68;6.00;;;;;;;;;;5067618;28;20213;-83
2022/03/14 09:44:32;;;;;;;6.85;5.55;;;;;;;;;;5068063;28;20227;-83
2022/03/14 09:47:02;;;;;;;6.93;5.70;;;;;;;;;;5068066;28;20743;-81
2022/03/14 09:49:31;;;;;;;6.75;6.15;;;;;;;;;;5068576;28;20236;-83
2022/03/14 09:52:01;;;;;;;6.00;5.50;;;;;;;;;;5068159;28;20233;-84
2022/03/14 09:54:28;;;;;;;6.53;5.82;;;;;;;;;;5072624;28;20251;-80
2022/03/14 09:56:57;;;;;;;5.97;5.38;;;;;;;;;;5076056;28;20229;-80
2022/03/14 09:59:25;;;;;;;8.00;6.95;;;;;;;;;;5076546;28;20216;-82
2022/03/14 10:01:54;;;;;;;7.35;6.65;;;;;;;;;;5076339;28;20210;-81
2022/03/14 10:04:22;;;;;;;6.65;6.05;;;;;;;;;;5075997;28;20202;-81
2022/03/14 10:06:50;;;;;;;6.32;5.72;;;;;;;;;;5076586;28;20233;-83
2022/03/14 10:09:17;;;;;;;7.13;6.43;;;;;;;;;;5076096;28;20213;-80
2022/03/14 10:11:45;;;;;;;6.38;5.78;;;;;;;;;;5069261;28;20212;-82
2022/03/14 10:14:17;;;;;;;5.68;5.20;;;;;;;;;;5068434;28;20229;-83
2022/03/14 10:16:45;;;;;;;5.88;5.28;;;;;;;;;;5068377;28;20256;-82
2022/03/14 10:19:20;;;;;;;5.70;5.13;;;;;;;;;;5068538;28;20210;-82
2022/03/14 10:21:51;;;;;;;6.13;5.63;;;;;;;;;;5068724;28;20240;-83
2022/03/14 10:24:23;;;;;;;7.10;6.50;;;;;;;;;;5065454;28;20205;-83
2022/03/14 10:26:51;;;;;;;6.88;6.22;;;;;;;;;;5064607;28;20229;-82
2022/03/14 10:29:25;;;;;;;5.22;4.72;;;;;;;;;;5065478;28;20202;-83
2022/03/14 10:31:56;;;;;;;5.25;4.75;;;;;;;;;;5066629;28;20209;-82
2022/03/14 10:34:25;;;;;;;5.72;5.22;;;;;;;;;;5058198;28;20265;-79
2022/03/14 10:36:54;;;;;;;6.03;5.43;;;;;;;;;;5061410;28;20252;-83
2022/03/14 10:39:25;;;;;;;5.15;4.75;;;;;;;;;;5065511;28;20202;-84
2022/03/14 10:42:05;;;;;;;6.10;5.50;;;;;;;;;;5065817;28;20206;-83
2022/03/14 10:44:34;;;;;;;5.18;4.78;;;;;;;;;;5065379;28;20260;-83
2022/03/14 10:47:02;;;;;;;5.60;5.10;;;;;;;;;;5063417;28;20232;-84
2022/03/14 10:49:33;;;;;;;5.65;5.15;;;;;;;;;;5064214;28;20210;-82
2022/03/14 10:52:03;;;;;;;5.10;4.60;;;;;;;;;;5059884;28;20206;-84
2022/03/14 10:54:32;;;;;;;6.28;5.75;;;;;;;;;;5056958;28;20316;-83
2022/03/14 10:57:05;;;;;;;6.18;5.60;;;;;;;;;;5055917;28;20276;-83
2022/03/14 10:59:39;;;;;;;6.00;5.50;;;;;;;;;;5056628;28;20221;-83
2022/03/14 11:02:08;;;;;;;5.15;4.65;;;;;;;;;;5056717;28;20204;-83
2022/03/14 11:04:45;;;;;;;6.03;5.53;;;;;;;;;;5056729;28;20201;-82
2022/03/14 11:07:13;;;;;;;5.65;5.15;;;;;;;;;;5055920;28;20709;-82
2022/03/14 11:09:46;;;;;;;5.32;4.82;;;;;;;;;;5056776;28;20205;-82
2022/03/14 11:12:15;;;;;;;4.90;4.50;;;;;;;;;;5056498;28;20209;-82
2022/03/14 11:14:51;;;;;;;5.25;4.75;;;;;;;;;;5059296;28;20240;-82
2022/03/14 11:17:21;;;;;;;4.18;3.83;;;;;;;;;;5059712;28;20237;-82
2022/03/14 11:19:50;;;;;;;3.80;3.50;;;;;;;;;;5058726;28;20206;-81
2022/03/14 11:22:20;;;;;;;4.30;3.90;;;;;;;;;;5057835;28;20236;-82
2022/03/14 11:24:49;;;;;;;5.15;4.75;;;;;;;;;;5058921;28;20267;-82
2022/03/14 11:27:23;;;;;;;4.25;3.85;;;;;;;;;;5057363;28;20225;-82
2022/03/14 11:29:53;;;;;;;5.63;5.10;;;;;;;;;;5059575;28;20583;-80
2022/03/14 11:32:21;;;;;;;4.75;4.35;;;;;;;;;;5059279;28;20301;-80
2022/03/14 11:34:51;;;;;;;5.45;4.95;;;;;;;;;;5059796;28;20228;-80
2022/03/14 11:37:19;;;;;;;4.65;4.25;;;;;;;;;;5060693;28;20232;-80
2022/03/14 11:39:47;;;;;;;4.93;4.53;;;;;;;;;;5064618;28;20300;-80
2022/03/14 11:42:16;;;;;;;4.80;4.40;;;;;;;;;;5064667;28;20202;-81
2022/03/14 11:44:45;;;;;;;4.60;4.20;;;;;;;;;;5060920;28;20251;-82
2022/03/14 11:47:14;;;;;;;4.47;4.07;;;;;;;;;;5057811;28;20316;-80
2022/03/14 11:49:43;;;;;;;4.35;3.95;;;;;;;;;;5057137;28;20208;-81
2022/03/14 11:52:18;;;;;;;3.78;3.47;;;;;;;;;;5057853;28;20209;-81
2022/03/14 11:54:49;;;;;;;3.70;3.40;;;;;;;;;;5058392;28;20279;-81
2022/03/14 11:57:35;;;;;;;2.83;2.63;;;;;;;;;;5050165;28;20249;-81
2022/03/14 12:00:35;;;;;;;4.53;4.13;;;;;;;;;;5057512;28;20209;-82
2022/03/14 12:03:05;;;;;;;3.63;3.33;;;;;;;;;;5051417;28;20210;-80
2022/03/14 12:05:51;;;;;;;2.90;2.70;;;;;;;;;;5057208;28;20244;-81
2022/03/14 12:08:55;;;;;;;3.15;2.85;;;;;;;;;;5060625;28;20287;-81
2022/03/14 12:11:35;;;;;;;2.58;2.38;;;;;;;;;;4978365;28;20212;-81
2022/03/14 12:14:03;;;;;;;2.92;2.72;;;;;;;;;;4979027;28;20224;-82
2022/03/14 12:16:37;;;;;;;2.90;2.70;;;;;;;;;;5022461;28;20677;-81
2022/03/14 12:19:30;;;;;;;3.28;2.97;;;;;;;;;;5061530;28;20422;-83
2022/03/14 12:22:00;;;;;;;2.88;2.67;;;;;;;;;;5055818;28;20205;-82
2022/03/14 12:24:49;;;;;;;2.40;2.20;;;;;;;;;;5062790;28;20202;-82
2022/03/14 12:27:21;;;;;;;2.58;2.38;;;;;;;;;;5061817;28;20259;-81
2022/03/14 12:29:50;;;;;;;3.20;2.95;;;;;;;;;;5061376;28;20206;-80
2022/03/14 12:32:29;;;;;;;2.63;2.42;;;;;;;;;;5063569;28;20221;-81
2022/03/14 12:34:59;;;;;;;2.85;2.53;;;;;;;;;;5064218;28;20225;-81
2022/03/14 12:37:35;;;;;;;2.83;2.67;;;;;;;;;;5056535;28;20235;-82
2022/03/14 12:40:04;;;;;;;3.03;2.80;;;;;;;;;;5057528;28;20205;-79
2022/03/14 12:42:40;;;;;;;2.83;2.63;;;;;;;;;;5062872;28;20210;-79
2022/03/14 12:45:22;;;;;;;3.00;2.80;;;;;;;;;;5063030;28;20209;-80
2022/03/14 12:47:54;;;;;;;2.78;2.47;;;;;;;;;;5062988;28;20284;-82
2022/03/14 12:51:04;;;;;;;3.10;2.90;;;;;;;;;;5063093;28;20303;-81
2022/03/14 12:53:47;;;;;;;2.60;2.40;;;;;;;;;;4982334;28;20215;-82
2022/03/14 12:56:25;;;;;;;2.10;2.00;;;;;;;;;;4981441;28;20290;-81
2022/03/14 12:59:07;;;;;;;2.60;2.40;;;;;;;;;;5032422;28;20209;-81
2022/03/14 13:01:37;;;;;;;2.88;2.67;;;;;;;;;;5061244;28;20198;-79
2022/03/14 13:04:06;;;;;;;2.80;2.55;;;;;;;;;;5059567;28;20274;-81
2022/03/14 13:06:40;;;;;;;2.55;2.35;;;;;;;;;;5058715;28;20205;-81
2022/03/14 13:09:09;;;;;;;2.83;2.50;;;;;;;;;;5060875;28;20205;-81
2022/03/14 13:11:43;;;;;;;3.08;2.85;;;;;;;;;;5065505;28;20661;-80
2022/03/14 13:14:14;;;;;;;2.85;2.65;;;;;;;;;;5065042;28;20209;-82
2022/03/14 13:16:42;;;;;;;3.00;2.80;;;;;;;;;;5061315;28;20245;-82
2022/03/14 13:19:18;;;;;;;3.58;3.28;;;;;;;;;;5058515;28;20209;-82
2022/03/14 13:21:47;;;;;;;3.15;2.85;;;;;;;;;;5062380;28;20231;-82
2022/03/14 13:24:14;;;;;;;3.97;3.58;;;;;;;;;;5061504;28;20213;-82
2022/03/14 13:26:46;;;;;;;3.58;3.28;;;;;;;;;;5060427;28;20236;-82
2022/03/14 13:29:13;;;;;;;3.53;2.92;;;;;;;;;;5052811;28;20653;-79
2022/03/14 13:31:43;;;;;;;3.72;3.28;;;;;;;;;;5058095;28;20205;-79
2022/03/14 13:34:13;;;;;;;2.85;2.65;;;;;;;;;;5058759;28;20228;-81
2022/03/14 13:36:43;;;;;;;2.88;2.67;;;;;;;;;;5056924;28;20233;-80
2022/03/14 13:39:13;;;;;;;2.63;2.42;;;;;;;;;;5056042;28;20240;-79
2022/03/14 13:41:44;;;;;;;2.50;2.30;;;;;;;;;;5056008;28;20209;-80
2022/03/14 13:44:16;;;;;;;3.33;2.88;;;;;;;;;;5056216;28;20554;-79
2022/03/14 13:46:47;;;;;;;3.38;3.08;;;;;;;;;;5055660;28;20226;-78
2022/03/14 13:49:23;;;;;;;2.60;2.40;;;;;;;;;;5058001;28;20205;-80
2022/03/14 13:51:54;;;;;;;2.53;2.13;;;;;;;;;;5057766;28;20296;-81
2022/03/14 13:54:24;;;;;;;2.70;2.50;;;;;;;;;;5058744;28;20193;-79
2022/03/14 13:56:55;;;;;;;2.17;2.00;;;;;;;;;;5056095;28;20225;-80
2022/03/14 13:59:31;;;;;;;2.53;2.33;;;;;;;;;;5058810;28;20202;-81
2022/03/14 14:02:03;;;;;;;2.40;2.20;;;;;;;;;;5050508;28;20232;-80
2022/03/14 14:04:34;;;;;;;2.60;2.40;;;;;;;;;;5053406;28;20206;-83
2022/03/14 14:07:01;;;;;;;2.75;2.42;;;;;;;;;;5056576;28;20662;-80
2022/03/14 14:09:31;;;;;;;3.42;2.75;;;;;;;;;;5056274;28;20210;-80
2022/03/14 14:12:07;;;;;;;2.85;2.65;;;;;;;;;;5056344;28;20205;-82
2022/03/14 14:14:38;;;;;;;2.90;2.70;;;;;;;;;;5055816;28;20263;-79
2022/03/14 14:17:17;;;;;;;2.80;2.60;;;;;;;;;;5065586;22;20237;-81
2022/03/14 14:20:19;;;;;;;3.20;2.90;;;;;;;;;;5079575;28;20193;-80
2022/03/14 14:22:48;;;;;;;3.15;2.95;;;;;;;;;;5081124;28;20714;-82
2022/03/14 14:25:26;;;;;;;2.60;2.40;;;;;;;;;;5060670;28;20224;-80
2022/03/14 14:28:00;;;;;;;2.60;2.40;;;;;;;;;;5061273;28;20190;-82
2022/03/14 14:30:36;;;;;;;3.05;2.85;;;;;;;;;;5060467;28;20190;-84
2022/03/14 14:33:05;;;;;;;2.67;2.47;;;;;;;;;;5060743;28;20216;-81
2022/03/14 14:35:33;;;;;;;2.10;2.00;;;;;;;;;;5059304;28;20217;-81
2022/03/14 14:38:01;;;;;;;2.78;2.50;;;;;;;;;;5059606;28;20193;-81
2022/03/14 14:40:29;;;;;;;3.45;3.15;;;;;;;;;;5059536;28;20201;-83
2022/03/14 14:42:58;;;;;;;2.88;2.67;;;;;;;;;;5059199;28;20189;-85
2022/03/14 14:45:25;;;;;;;1.92;1.83;;;;;;;;;;5058044;28;20651;-84
2022/03/14 14:47:52;;;;;;;2.97;2.67;;;;;;;;;;5058296;28;20205;-84
2022/03/14 14:50:20;;;;;;;2.70;2.40;;;;;;;;;;5057363;28;20304;-84
2022/03/14 14:52:48;;;;;;;2.95;2.75;;;;;;;;;;5058794;28;20587;-84
2022/03/14 14:55:15;;;;;;;4.15;3.75;;;;;;;;;;5058504;28;20255;-82
2022/03/14 14:57:43;;;;;;;2.15;2.00;;;;;;;;;;5057877;28;20202;-82
2022/03/14 15:00:13;;;;;;;3.35;2.55;;;;;;;;;;5057935;28;20202;-83